Home > Products > Valid Products > MTR

000
SAUS45 KGGW 271349
MTRJDN
METAR KJDN 271348Z AUTO 27005KT 16/12 A2994 RMK AO1 SLP135 T01560122





000
SAUS45 KGGW 271249
MTRJDN
METAR KJDN 271248Z AUTO 32005KT 14/12 A2994 RMK AO1 SLP135 T01390122





000
SAUS45 KGGW 271149
MTRJDN
METAR KJDN 271148Z AUTO 27005KT 13/12 A2993 RMK AO1 SLP128 60001
70001 T01330117 10144 20133 53005





000
SAUS45 KGGW 271149
MTRJDN
METAR KJDN 271148Z AUTO 27005KT 13/12 A2993 RMK AO1 SLP128 60001
70001 T01330117 10144 20133 53005





000
SAUS45 KGGW 271049
MTRJDN
METAR KJDN 271048Z AUTO 26005KT 14/12 A2991 RMK AO1 SLP122 P0001
T01390117





000
SAUS45 KGGW 271049
MTRJDN
METAR KJDN 271048Z AUTO 26005KT 14/12 A2991 RMK AO1 SLP122 P0001
T01390117





000
SAUS45 KGGW 270949
MTRJDN
METAR KJDN 270948Z AUTO 30005KT 14/12 A2992 RMK AO1 SLP124 T01390117





000
SAUS45 KGGW 270849
MTRJDN
METAR KJDN 270848Z AUTO 00000KT 13/12 A2991 RMK AO1 SLP121 T01330117
53002





000
SAUS45 KGGW 270749
MTRJDN
METAR KJDN 270748Z AUTO 28003KT 13/12 A2991 RMK AO1 SLP119 T01330117





000
SAUS45 KGGW 270749
MTRJDN
METAR KJDN 270748Z AUTO 28003KT 13/12 A2991 RMK AO1 SLP119 T01330117





000
SAUS45 KGGW 270649
MTRJDN
METAR KJDN 270648Z AUTO 26003KT 13/12 A2991 RMK AO1 SLP122 T01330117
402560050





000
SAUS45 KGGW 270649
MTRJDN
METAR KJDN 270648Z AUTO 26003KT 13/12 A2991 RMK AO1 SLP122 T01330117
402560050





000
SAUS45 KGGW 270549
MTRJDN
METAR KJDN 270548Z AUTO 26007KT 14/12 A2991 RMK AO1 SLP122 T01390122
10233 20139 51004





000
SAUS45 KGGW 270549
MTRJDN
METAR KJDN 270548Z AUTO 26007KT 14/12 A2991 RMK AO1 SLP122 T01390122
10233 20139 51004





000
SAUS45 KGGW 270449
MTRJDN
METAR KJDN 270448Z AUTO 32009KT 16/11 A2991 RMK AO1 WSHFT 0356
SLP120 T01560111





000
SAUS45 KGGW 270414
MTRJDN
SPECI KJDN 270413Z AUTO 35012KT 16/11 A2991 RMK AO1 WSHFT 0356
T01610106





000
SAUS45 KGGW 270349
MTRJDN
METAR KJDN 270348Z AUTO 28006KT 17/11 A2992 RMK AO1 SLP124 T01670106





000
SAUS45 KGGW 270249
MTRJDN
METAR KJDN 270248Z AUTO 09003KT 17/12 A2990 RMK AO1 SLP119 T01720117
53008





000
SAUS45 KGGW 270149
MTRJDN
METAR KJDN 270148Z AUTO 33010KT 17/12 A2988 RMK AO1 SLP118 T01720122





000
SAUS45 KGGW 270049
MTRJDN
METAR KJDN 270048Z AUTO 31016KT 18/11 A2988 RMK AO1 PK WND
29028/2354 SLP120 T01830106





000
SAUS45 KGGW 270049
MTRJDN
METAR KJDN 270048Z AUTO 31016KT 18/11 A2988 RMK AO1 PK WND
29028/2354 SLP120 T01830106





000
SAUS45 KGGW 262349
MTRJDN
METAR KJDN 262348Z AUTO 29008KT 23/08 A2987 RMK AO1 SLP113 T02330078
10256 20211 53001





000
SAUS45 KGGW 262349
MTRJDN
METAR KJDN 262348Z AUTO 29008KT 23/08 A2987 RMK AO1 SLP113 T02330078
10256 20211 53001





000
SAUS45 KGGW 262249
MTRJDN
METAR KJDN 262248Z AUTO 29003KT 24/06 A2986 RMK AO1 SLP109 T02390061





000
SAUS45 KGGW 262149
MTRJDN
METAR KJDN 262148Z AUTO 07005KT 25/07 A2986 RMK AO1 SLP108 T02500067





000
SAUS45 KGGW 262049
MTRJDN
METAR KJDN 262048Z AUTO VRB04KT 25/07 A2987 RMK AO1 SLP110 T02500072
56012





000
SAUS45 KGGW 262049
MTRJDN
METAR KJDN 262048Z AUTO VRB04KT 25/07 A2987 RMK AO1 SLP110 T02500072
56012





000
SAUS45 KGGW 261949
MTRJDN
METAR KJDN 261948Z AUTO 24/08 A2987 RMK AO1 SLP112 T02440078





000
SAUS45 KGGW 261849
MTRJDN
METAR KJDN 261848Z AUTO VRB03KT 23/08 A2989 RMK AO1 SLP116 T02330078





000
SAUS45 KGGW 261750
MTRJDN
METAR KJDN 261748Z AUTO VRB06KT 22/09 A2990 RMK AO1 SLP123 T02170089
10222 20056 56005





000
SAUS45 KGGW 261750
MTRJDN
METAR KJDN 261748Z AUTO VRB06KT 22/09 A2990 RMK AO1 SLP123 T02170089
10222 20056 56005





000
SAUS45 KGGW 261649
MTRJDN
METAR KJDN 261648Z AUTO VRB04KT 21/08 A2991 RMK AO1 SLP124 T02060083





000
SAUS45 KGGW 261549
MTRJDN
METAR KJDN 261548Z AUTO 15005KT 19/10 A2991 RMK AO1 SLP125 T01940100





000
SAUS45 KGGW 261549
MTRJDN
METAR KJDN 261548Z AUTO 15005KT 19/10 A2991 RMK AO1 SLP125 T01940100





000
SAUS45 KGGW 261449
MTRJDN
METAR KJDN 261448Z AUTO 00000KT 16/11 A2992 RMK AO1 SLP128 T01560111
50001





000
SAUS45 KGGW 261449
MTRJDN
METAR KJDN 261448Z AUTO 00000KT 16/11 A2992 RMK AO1 SLP128 T01560111
50001





000
SAUS45 KGGW 261349
MTRJDN
METAR KJDN 261348Z AUTO 00000KT 12/09 A2992 RMK AO1 SLP132 T01170094





000
SAUS45 KGGW 261349
MTRJDN
METAR KJDN 261348Z AUTO 00000KT 12/09 A2992 RMK AO1 SLP132 T01170094





000
SAUS45 KGGW 261249
MTRJDN
METAR KJDN 261248Z AUTO 27004KT 08/07 A2992 RMK AO1 SLP134 T00830072





000
SAUS45 KGGW 261149
MTRJDN
METAR KJDN 261148Z AUTO 27004KT 06/06 A2991 RMK AO1 SLP132 70014
T00610056 10100 20050 51004





000
SAUS45 KGGW 261049
MTRJDN
METAR KJDN 261048Z AUTO 00000KT 06/06 A2991 RMK AO1 SLP131 T00610056





000
SAUS45 KGGW 260949
MTRJDN
METAR KJDN 260948Z AUTO 10004KT 07/07 A2990 RMK AO1 SLP124 T00720067





000
SAUS45 KGGW 260849
MTRJDN
METAR KJDN 260848Z AUTO 00000KT 07/07 A2990 RMK AO1 SLP123 T00720067
52002





000
SAUS45 KGGW 260849
MTRJDN
METAR KJDN 260848Z AUTO 00000KT 07/07 A2990 RMK AO1 SLP123 T00720067
52002





000
SAUS45 KGGW 260749
MTRJDN
METAR KJDN 260748Z AUTO 00000KT 08/07 A2990 RMK AO1 SLP121 T00780067





000
SAUS45 KGGW 260649
MTRJDN
METAR KJDN 260648Z AUTO 28003KT 09/08 A2990 RMK AO1 SLP122 T00940078
402390061





000
SAUS45 KGGW 260649
MTRJDN
METAR KJDN 260648Z AUTO 28003KT 09/08 A2990 RMK AO1 SLP122 T00940078
402390061





000
SAUS45 KGGW 260549
MTRJDN
METAR KJDN 260548Z AUTO 00000KT 10/09 A2989 RMK AO1 SLP119 T01000089
10194 20100 51009





000
SAUS45 KGGW 260449
MTRJDN
METAR KJDN 260448Z AUTO 09005KT 12/09 A2989 RMK AO1 SLP120 T01220094





000
SAUS45 KGGW 260349
MTRJDN
METAR KJDN 260348Z AUTO 09005KT 14/10 A2989 RMK AO1 SLP116 T01390100





000
SAUS45 KGGW 260249
MTRJDN
METAR KJDN 260248Z AUTO 00000KT 16/11 A2986 RMK AO1 SLP108 T01610106
53001





000
SAUS45 KGGW 260249
MTRJDN
METAR KJDN 260248Z AUTO 00000KT 16/11 A2986 RMK AO1 SLP108 T01610106
53001





000
SAUS45 KGGW 260149
MTRJDN
METAR KJDN 260148Z AUTO 15007KT 17/11 A2986 RMK AO1 SLP112 T01720106





000
SAUS45 KGGW 260049
MTRJDN
METAR KJDN 260048Z AUTO 16012KT 19/10 A2986 RMK AO1 SLP111 T01940100





000
SAUS45 KGGW 252349
MTRJDN
METAR KJDN 252348Z AUTO 16017KT 19/13 A2986 RMK AO1 WSHFT 2241
SLP113 P0014 60014 T01890128 10239 20178 53004





000
SAUS45 KGGW 252259
MTRJDN
SPECI KJDN 252258Z AUTO 13013G23KT 18/12 A2986 RMK AO1 WSHFT 2241
T01830117





000
SAUS45 KGGW 252249
MTRJDN
METAR KJDN 252248Z AUTO 13017G24KT 20/11 A2985 RMK AO1 SLP109
T02000106





000
SAUS45 KGGW 252249
MTRJDN
METAR KJDN 252248Z AUTO 13017G24KT 20/11 A2985 RMK AO1 SLP109
T02000106





000
SAUS45 KGGW 252149
MTRJDN
METAR KJDN 252148Z AUTO VRB05KT 24/05 A2984 RMK AO1 SLP102 T02390050





000
SAUS45 KGGW 252049
MTRJDN
METAR KJDN 252048Z AUTO 17006KT 23/05 A2985 RMK AO1 SLP105 T02330050
56009





000
SAUS45 KGGW 251949
MTRJDN
METAR KJDN 251948Z AUTO 20008KT 23/06 A2985 RMK AO1 SLP105 T02330056





000
SAUS45 KGGW 251849
MTRJDN
METAR KJDN 251848Z AUTO 00000KT 22/05 A2986 RMK AO1 SLP110 T02170050





000
SAUS45 KGGW 251749
MTRJDN
METAR KJDN 251748Z AUTO 04007KT 22/08 A2988 RMK AO1 SLP112 T02220078
10222 20061 57006





000
SAUS45 KGGW 251749
MTRJDN
METAR KJDN 251748Z AUTO 04007KT 22/08 A2988 RMK AO1 SLP112 T02220078
10222 20061 57006





000
SAUS45 KGGW 251649
MTRJDN
METAR KJDN 251648Z AUTO 00000KT 19/08 A2988 RMK AO1 SLP117 T01890078





000
SAUS45 KGGW 251549
MTRJDN
METAR KJDN 251548Z AUTO 06006KT 19/09 A2989 RMK AO1 SLP116 T01890089





000
SAUS45 KGGW 251549
MTRJDN
METAR KJDN 251548Z AUTO 06006KT 19/09 A2989 RMK AO1 SLP116 T01890089





000
SAUS45 KGGW 251449
MTRJDN
METAR KJDN 251448Z AUTO 00000KT 17/10 A2989 RMK AO1 SLP118 T01670100
58002





000
SAUS45 KGGW 251349
MTRJDN
METAR KJDN 251348Z AUTO 27004KT 11/08 A2990 RMK AO1 SLP123 T01110083





000
SAUS45 KGGW 251249
MTRJDN
METAR KJDN 251248Z AUTO 29003KT 08/07 A2990 RMK AO1 SLP126 T00780067





000
SAUS45 KGGW 251149
MTRJDN
METAR KJDN 251148Z AUTO 00000KT 06/05 A2990 RMK AO1 SLP128 T00610050
10111 20061 58002





000
SAUS45 KGGW 251149
MTRJDN
METAR KJDN 251148Z AUTO 00000KT 06/05 A2990 RMK AO1 SLP128 T00610050
10111 20061 58002





000
SAUS45 KGGW 251049
MTRJDN
METAR KJDN 251048Z AUTO 28004KT 07/06 A2990 RMK AO1 SLP127 T00670056





000
SAUS45 KGGW 250949
MTRJDN
METAR KJDN 250948Z AUTO 27003KT 06/06 A2991 RMK AO1 SLP128 T00610056





000
SAUS45 KGGW 250849
MTRJDN
METAR KJDN 250848Z AUTO 00000KT 07/06 A2991 RMK AO1 SLP128 T00670056
56002





000
SAUS45 KGGW 250749
MTRJDN
METAR KJDN 250748Z AUTO 00000KT 08/06 A2991 RMK AO1 SLP127 T00780061





000
SAUS45 KGGW 250749
MTRJDN
METAR KJDN 250748Z AUTO 00000KT 08/06 A2991 RMK AO1 SLP127 T00780061





000
SAUS45 KGGW 250649
MTRJDN
METAR KJDN 250648Z AUTO 00000KT 09/07 A2990 RMK AO1 SLP126 T00890072
402220083





000
SAUS45 KGGW 250649
MTRJDN
METAR KJDN 250648Z AUTO 00000KT 09/07 A2990 RMK AO1 SLP126 T00890072
402220083





000
SAUS45 KGGW 250549
MTRJDN
METAR KJDN 250548Z AUTO 00000KT 11/08 A2991 RMK AO1 SLP128 T01110083
10200 20111 58002





000
SAUS45 KGGW 250449
MTRJDN
METAR KJDN 250448Z AUTO 00000KT 12/08 A2993 RMK AO1 SLP133 T01220083





000
SAUS45 KGGW 250449
MTRJDN
METAR KJDN 250448Z AUTO 00000KT 12/08 A2993 RMK AO1 SLP133 T01220083





000
SAUS45 KGGW 250349
MTRJDN
METAR KJDN 250348Z AUTO VRB03KT 14/09 A2993 RMK AO1 SLP132 T01440094





000
SAUS45 KGGW 250249
MTRJDN
METAR KJDN 250248Z AUTO 11006KT 17/08 A2992 RMK AO1 SLP129 T01670083
55004





000
SAUS45 KGGW 250149
MTRJDN
METAR KJDN 250148Z AUTO 09003KT 19/07 A2991 RMK AO1 SLP125 T01940067





000
SAUS45 KGGW 250149
MTRJDN
METAR KJDN 250148Z AUTO 09003KT 19/07 A2991 RMK AO1 SLP125 T01940067





000
SAUS45 KGGW 250049
MTRJDN
METAR KJDN 250048Z AUTO 13007KT 19/07 A2992 RMK AO1 SLP128 T01940072





000
SAUS45 KGGW 250049
MTRJDN
METAR KJDN 250048Z AUTO 13007KT 19/07 A2992 RMK AO1 SLP128 T01940072





000
SAUS45 KGGW 242349
MTRJDN
METAR KJDN 242348Z AUTO 14009KT 18/08 A2994 RMK AO1 SLP137 T01780078
10222 20178 56009





000
SAUS45 KGGW 242349
MTRJDN
METAR KJDN 242348Z AUTO 14009KT 18/08 A2994 RMK AO1 SLP137 T01780078
10222 20178 56009





000
SAUS45 KGGW 242249
MTRJDN
METAR KJDN 242248Z AUTO 11014KT 21/06 A2994 RMK AO1 SLP136 T02110061





000
SAUS45 KGGW 242149
MTRJDN
METAR KJDN 242148Z AUTO 07008KT 21/06 A2995 RMK AO1 SLP138 T02110056





000
SAUS45 KGGW 242049
MTRJDN
METAR KJDN 242048Z AUTO 07011G16KT 21/06 A2997 RMK AO1 SLP145
T02060061 56013





000
SAUS45 KGGW 242049
MTRJDN
METAR KJDN 242048Z AUTO 07011G16KT 21/06 A2997 RMK AO1 SLP145
T02060061 56013





000
SAUS45 KGGW 241949
MTRJDN
METAR KJDN 241948Z AUTO 08011KT 21/05 A2998 RMK AO1 SLP149 T02060050





000
SAUS45 KGGW 241849
MTRJDN
METAR KJDN 241848Z AUTO 06009KT 19/07 A3000 RMK AO1 SLP157 T01940067





000
SAUS45 KGGW 241849
MTRJDN
METAR KJDN 241848Z AUTO 06009KT 19/07 A3000 RMK AO1 SLP157 T01940067





000
SAUS45 KGGW 241749
MTRJDN
METAR KJDN 241748Z AUTO 08008KT 030V100 18/07 A3001 RMK AO1 SLP160
T01830072 10183 20106 56018





000
SAUS45 KGGW 241649
MTRJDN
METAR KJDN 241648Z AUTO VRB06KT 17/07 A3002 RMK AO1 SLP167 T01720067





000
SAUS45 KGGW 241649
MTRJDN
METAR KJDN 241648Z AUTO VRB06KT 17/07 A3002 RMK AO1 SLP167 T01720067





000
SAUS45 KGGW 241549
MTRJDN
METAR KJDN 241548Z AUTO 05007KT 17/08 A3004 RMK AO1 SLP174 T01720078





000
SAUS45 KGGW 241449
MTRJDN
METAR KJDN 241448Z AUTO 09005KT 15/08 A3006 RMK AO1 SLP181 T01500078
58002





    US Dept of Commerce
    National Oceanic and Atmospheric Administration
    National Weather Service
    1325 East West Highway
    Silver Spring, MD 20910
    Page Author: NWS Internet Services Team
Disclaimer
Information Quality
Credits
Glossary
Privacy Policy
Freedom of Information Act (FOIA)
About Us
Career Opportunities